createdAt,value
2018-06-02T00:01:20.795Z,66.48
2018-06-02T00:03:47.088Z,66.83
2018-06-02T00:06:13.381Z,66.94
2018-06-02T00:08:39.735Z,67.03
2018-06-02T00:11:06.076Z,67.92
2018-06-02T00:13:32.320Z,68.25
2018-06-02T00:15:58.618Z,68.43
2018-06-02T00:18:24.921Z,70.00
2018-06-02T00:20:51.203Z,70.91
2018-06-02T00:23:17.497Z,71.03
2018-06-02T00:25:43.794Z,71.27
2018-06-02T00:28:10.084Z,71.41
2018-06-02T00:30:36.380Z,71.20
2018-06-02T00:33:02.712Z,71.93
2018-06-02T00:35:29.035Z,71.93
2018-06-02T00:37:55.342Z,72.10
2018-06-02T00:40:21.669Z,71.76
2018-06-02T00:42:48.005Z,71.83
2018-06-02T00:45:16.278Z,72.10
2018-06-02T00:47:40.773Z,72.05
2018-06-02T00:50:07.067Z,71.60
2018-06-02T00:52:33.372Z,71.08
2018-06-02T00:54:59.664Z,70.62
2018-06-02T00:57:25.960Z,70.10
2018-06-02T00:59:52.253Z,69.46
2018-06-02T01:02:18.582Z,69.14
2018-06-02T01:04:44.885Z,68.55
2018-06-02T01:07:11.186Z,68.41
2018-06-02T01:09:37.477Z,68.58
2018-06-02T01:12:03.767Z,68.35
2018-06-02T01:14:30.056Z,68.14
2018-06-02T01:16:56.409Z,67.48
2018-06-02T01:19:22.702Z,66.52
2018-06-02T01:21:48.997Z,65.44
2018-06-02T01:24:15.285Z,64.51
2018-06-02T01:26:41.582Z,64.28
2018-06-02T01:29:07.884Z,63.46
2018-06-02T01:31:34.170Z,63.34
2018-06-02T01:34:00.464Z,63.43
2018-06-02T01:36:26.784Z,63.34
2018-06-02T01:38:53.071Z,63.20
2018-06-02T01:41:19.360Z,62.97
2018-06-02T01:43:45.665Z,62.33
2018-06-02T01:46:11.960Z,62.23
2018-06-02T01:48:38.260Z,61.75
2018-06-02T01:51:04.554Z,61.46
2018-06-02T01:53:30.841Z,61.33
2018-06-02T01:55:57.137Z,61.04
2018-06-02T01:58:23.436Z,61.04
2018-06-02T02:00:49.736Z,60.95
2018-06-02T02:03:16.044Z,60.80
2018-06-02T02:05:42.374Z,60.50
2018-06-02T02:08:08.665Z,60.60
2018-06-02T02:10:34.961Z,60.91
2018-06-02T02:13:01.263Z,60.90
2018-06-02T02:15:27.597Z,61.04
2018-06-02T02:17:53.889Z,61.30
2018-06-02T02:20:20.187Z,61.35
2018-06-02T02:22:46.479Z,61.47
2018-06-02T02:25:12.771Z,61.51
2018-06-02T02:27:39.054Z,61.66
2018-06-02T02:30:05.343Z,61.68
2018-06-02T02:32:31.628Z,61.88
2018-06-02T02:34:57.969Z,61.98
2018-06-02T02:37:24.260Z,62.16
2018-06-02T02:39:50.551Z,62.52
2018-06-02T02:42:16.866Z,62.77
2018-06-02T02:44:43.158Z,62.68
2018-06-02T02:47:09.448Z,62.79
2018-06-02T02:49:35.769Z,63.10
2018-06-02T02:52:02.070Z,62.76
2018-06-02T02:54:28.368Z,62.51
2018-06-02T02:56:54.664Z,62.38
2018-06-02T02:59:20.962Z,62.66
2018-06-02T03:01:47.400Z,62.57
2018-06-02T03:04:13.697Z,62.69
2018-06-02T03:06:40.014Z,62.52
2018-06-02T03:09:06.317Z,62.50
2018-06-02T03:11:32.607Z,62.61
2018-06-02T03:13:58.913Z,62.66
2018-06-02T03:16:25.211Z,62.61
2018-06-02T03:18:51.506Z,62.57
2018-06-02T03:21:17.801Z,62.61
2018-06-02T03:23:44.090Z,62.62
2018-06-02T03:26:10.428Z,62.69
2018-06-02T03:28:36.719Z,62.85
2018-06-02T03:31:03.020Z,62.80
2018-06-02T03:33:29.308Z,62.33
2018-06-02T03:35:55.604Z,62.36
2018-06-02T03:38:21.896Z,62.08
2018-06-02T03:40:48.180Z,61.94
2018-06-02T03:43:14.467Z,62.07
2018-06-02T03:45:40.800Z,61.71
2018-06-02T03:48:07.093Z,61.89
2018-06-02T03:50:33.378Z,61.59
2018-06-02T03:52:59.667Z,61.68
2018-06-02T03:55:25.963Z,61.39
2018-06-02T03:57:52.257Z,61.49
2018-06-02T04:00:18.544Z,61.37
2018-06-02T04:02:44.831Z,61.62
2018-06-02T04:05:11.136Z,61.51
2018-06-02T04:07:37.423Z,61.68
2018-06-02T04:10:03.727Z,61.71
2018-06-02T04:12:30.021Z,61.50
2018-06-02T04:14:56.317Z,61.50
2018-06-02T04:17:22.609Z,61.59
2018-06-02T04:19:48.943Z,60.96
2018-06-02T04:22:15.240Z,61.02
2018-06-02T04:24:41.576Z,60.84
2018-06-02T04:27:07.870Z,60.51
2018-06-02T04:29:34.211Z,60.01
2018-06-02T04:32:00.500Z,59.70
2018-06-02T04:34:26.820Z,59.39
2018-06-02T04:36:53.122Z,59.40
2018-06-02T04:39:19.464Z,59.53
2018-06-02T04:41:45.752Z,59.80
2018-06-02T04:44:12.087Z,59.77
2018-06-02T04:46:38.376Z,59.58
2018-06-02T04:49:04.668Z,59.24
2018-06-02T04:51:31.008Z,58.73
2018-06-02T04:53:57.300Z,58.33
2018-06-02T04:56:23.598Z,59.17
2018-06-02T04:58:49.886Z,58.67
2018-06-02T05:01:16.233Z,57.33
2018-06-02T05:03:42.528Z,57.82
2018-06-02T05:06:08.820Z,57.50
2018-06-02T05:08:35.125Z,57.01
2018-06-02T05:11:01.460Z,56.34
2018-06-02T05:13:27.748Z,55.35
2018-06-02T05:15:54.048Z,55.00
2018-06-02T05:18:20.336Z,53.62
2018-06-02T05:20:46.625Z,52.66
2018-06-02T05:23:12.925Z,51.39
2018-06-02T05:25:39.252Z,50.81
2018-06-02T05:28:05.601Z,51.09
2018-06-02T05:30:31.902Z,50.30
2018-06-02T05:32:58.202Z,50.19
2018-06-02T05:35:24.538Z,49.59
2018-06-02T05:37:50.808Z,48.74
2018-06-02T05:40:17.101Z,47.83
2018-06-02T05:42:43.408Z,46.05
2018-06-02T05:45:09.702Z,43.01
2018-06-02T05:47:35.996Z,40.46
2018-06-02T05:50:02.283Z,39.50
2018-06-02T05:52:28.572Z,38.24
2018-06-02T05:54:54.860Z,37.36
2018-06-02T05:57:21.149Z,38.28
2018-06-02T05:59:47.458Z,37.22
2018-06-02T06:02:13.753Z,37.75
2018-06-02T06:04:40.045Z,38.19
2018-06-02T06:07:06.345Z,38.34
2018-06-02T06:09:32.639Z,37.66
2018-06-02T06:11:58.945Z,38.66
2018-06-02T06:14:25.242Z,39.58
2018-06-02T06:16:51.530Z,40.07
2018-06-02T06:19:17.825Z,40.36
2018-06-02T06:21:44.129Z,41.10
2018-06-02T06:24:10.414Z,41.18
2018-06-02T06:26:36.704Z,41.60
2018-06-02T06:29:03.045Z,40.67
2018-06-02T06:31:29.327Z,40.51
2018-06-02T06:33:55.615Z,41.06
2018-06-02T06:36:21.914Z,41.61
2018-06-02T06:38:48.206Z,40.17
2018-06-02T06:41:14.499Z,40.26
2018-06-02T06:43:40.802Z,39.89
2018-06-02T06:46:07.100Z,40.50
2018-06-02T06:48:33.398Z,39.81
2018-06-02T06:50:59.689Z,38.55
2018-06-02T06:53:26.003Z,39.43
2018-06-02T06:55:52.299Z,39.74
2018-06-02T06:58:18.590Z,39.06
2018-06-02T07:00:44.884Z,39.05
2018-06-02T07:03:11.201Z,38.48
2018-06-02T07:05:37.493Z,38.16
2018-06-02T07:08:03.790Z,38.32
2018-06-02T07:10:30.079Z,36.81
2018-06-02T07:12:56.375Z,36.90
2018-06-02T07:15:22.670Z,37.82
2018-06-02T07:17:49.000Z,37.01
2018-06-02T07:20:15.272Z,36.77
2018-06-02T07:22:41.571Z,36.63
2018-06-02T07:25:07.856Z,36.53
2018-06-02T07:27:34.197Z,35.55
2018-06-02T07:30:00.493Z,34.26
2018-06-02T07:32:26.788Z,34.25
2018-06-02T07:34:53.085Z,33.31
2018-06-02T07:37:19.388Z,32.63
2018-06-02T07:39:45.674Z,32.76
2018-06-02T07:42:11.970Z,32.24
2018-06-02T07:44:38.305Z,32.38
2018-06-02T07:47:04.595Z,32.44
2018-06-02T07:49:30.895Z,32.95
2018-06-02T07:51:57.187Z,33.03
2018-06-02T07:54:23.481Z,32.77
2018-06-02T07:56:49.771Z,33.31
2018-06-02T07:59:16.109Z,33.36
2018-06-02T08:01:42.404Z,33.22
2018-06-02T08:04:08.697Z,32.66
2018-06-02T08:06:34.985Z,32.94
2018-06-02T08:09:01.348Z,33.24
2018-06-02T08:11:27.699Z,32.55
2018-06-02T08:13:53.992Z,31.56
2018-06-02T08:16:20.292Z,31.18
2018-06-02T08:18:46.591Z,30.81
2018-06-02T08:21:12.935Z,30.43
2018-06-02T08:23:39.227Z,30.32
2018-06-02T08:26:05.518Z,31.32
2018-06-02T08:28:31.815Z,31.13
2018-06-02T08:30:58.119Z,31.14
2018-06-02T08:33:24.482Z,30.87
2018-06-02T08:35:50.840Z,30.63
2018-06-02T08:38:17.223Z,30.60
2018-06-02T08:40:43.537Z,30.47
2018-06-02T08:43:09.835Z,30.03
2018-06-02T08:45:36.129Z,29.79
2018-06-02T08:48:02.424Z,29.47
2018-06-02T08:50:28.721Z,29.37
2018-06-02T08:52:55.023Z,29.80
2018-06-02T08:55:21.333Z,29.23
2018-06-02T08:57:47.615Z,28.12
2018-06-02T09:00:13.919Z,28.54
2018-06-02T09:02:40.210Z,29.26
2018-06-02T09:05:06.781Z,29.58
2018-06-02T09:07:33.069Z,29.32
2018-06-02T09:09:59.355Z,29.03
2018-06-02T09:12:28.637Z,29.19
2018-06-02T09:14:54.907Z,29.10
2018-06-02T09:17:21.243Z,27.73
2018-06-02T09:19:47.535Z,27.32
2018-06-02T09:22:13.827Z,28.11
2018-06-02T09:24:40.121Z,28.21
2018-06-02T09:27:06.452Z,28.06
2018-06-02T09:29:32.745Z,27.91
2018-06-02T09:32:04.953Z,27.43
2018-06-02T09:34:31.223Z,26.68
2018-06-02T09:36:57.512Z,26.43
2018-06-02T09:39:23.851Z,26.12
2018-06-02T09:41:50.170Z,26.90
2018-06-02T09:44:16.461Z,26.73
2018-06-02T09:46:42.755Z,27.55
2018-06-02T09:49:09.050Z,28.73
2018-06-02T09:51:43.365Z,27.63
2018-06-02T09:54:04.916Z,27.55
2018-06-02T09:56:31.291Z,27.95
2018-06-02T09:58:57.674Z,26.75
2018-06-02T10:01:24.059Z,25.38
2018-06-02T10:03:50.436Z,24.32
2018-06-02T10:06:16.775Z,24.60
2018-06-02T10:08:43.231Z,25.22
2018-06-02T10:11:09.513Z,24.80
2018-06-02T10:13:35.761Z,25.24
2018-06-02T10:16:02.088Z,25.26
2018-06-02T10:18:28.387Z,25.00
2018-06-02T10:20:54.698Z,25.50
2018-06-02T10:23:21.014Z,25.60
2018-06-02T10:25:47.317Z,25.82
2018-06-02T10:28:13.694Z,26.51
2018-06-02T10:30:39.947Z,26.22
2018-06-02T10:33:09.853Z,26.68
2018-06-02T10:35:34.773Z,25.88
2018-06-02T10:38:01.056Z,27.05
2018-06-02T10:40:27.358Z,27.39
2018-06-02T10:42:53.775Z,25.63
2018-06-02T10:45:20.109Z,25.44
2018-06-02T10:47:46.403Z,24.78
2018-06-02T10:50:18.414Z,24.82
2018-06-02T10:52:44.716Z,23.76
2018-06-02T10:55:11.006Z,23.69
2018-06-02T10:57:37.296Z,23.52
2018-06-02T11:00:07.262Z,23.54
2018-06-02T11:02:33.556Z,23.60
2018-06-02T11:04:59.858Z,23.84
2018-06-02T11:07:26.161Z,24.16
2018-06-02T11:09:52.455Z,23.37
2018-06-02T11:12:18.754Z,22.87
2018-06-02T11:14:45.055Z,22.21
2018-06-02T11:17:11.359Z,23.25
2018-06-02T11:19:37.711Z,22.84
2018-06-02T11:22:03.947Z,23.36
2018-06-02T11:24:30.241Z,23.04
2018-06-02T11:26:56.540Z,23.51
2018-06-02T11:29:22.838Z,24.04
2018-06-02T11:31:49.134Z,24.27
2018-06-02T11:34:15.448Z,24.85
2018-06-02T11:36:41.741Z,24.95
2018-06-02T11:39:08.028Z,24.55
2018-06-02T11:41:34.328Z,23.92
2018-06-02T11:44:00.684Z,24.68
2018-06-02T11:46:26.999Z,24.38
2018-06-02T11:48:53.282Z,24.17
2018-06-02T11:51:19.580Z,24.11
2018-06-02T11:53:45.937Z,23.82
2018-06-02T11:56:12.266Z,24.22
2018-06-02T11:58:38.532Z,25.22
2018-06-02T12:01:04.875Z,24.22
2018-06-02T12:03:31.118Z,24.71
2018-06-02T12:05:57.410Z,24.58
2018-06-02T12:08:23.711Z,25.04
2018-06-02T12:10:50.000Z,25.04
2018-06-02T12:13:16.297Z,24.18
2018-06-02T12:15:42.590Z,24.01
2018-06-02T12:18:08.901Z,23.96
2018-06-02T12:20:35.194Z,24.86
2018-06-02T12:23:01.494Z,24.79
2018-06-02T12:25:27.789Z,24.78
2018-06-02T12:27:54.085Z,24.44
2018-06-02T12:30:20.425Z,25.08
2018-06-02T12:32:46.719Z,25.69
2018-06-02T12:35:13.049Z,26.23
2018-06-02T12:37:39.342Z,27.19
2018-06-02T12:40:05.630Z,27.23
2018-06-02T12:42:33.089Z,26.15
2018-06-02T12:44:58.274Z,25.86
2018-06-02T12:47:24.559Z,24.44
2018-06-02T12:49:50.897Z,23.26
2018-06-02T12:52:17.223Z,23.94
2018-06-02T12:54:43.515Z,23.97
2018-06-02T12:57:09.819Z,24.75
2018-06-02T12:59:36.119Z,27.83
2018-06-02T13:02:02.417Z,28.55
2018-06-02T13:04:28.762Z,26.43
2018-06-02T13:06:55.064Z,26.40
2018-06-02T13:09:21.397Z,27.12
2018-06-02T13:11:47.684Z,29.75
2018-06-02T13:14:14.031Z,31.34
2018-06-02T13:16:40.338Z,31.04
2018-06-02T13:19:06.632Z,30.91
2018-06-02T13:21:32.936Z,31.36
2018-06-02T13:23:59.229Z,30.42
2018-06-02T13:26:25.874Z,30.88
2018-06-02T13:28:57.408Z,31.62
2018-06-02T13:31:25.682Z,31.99
2018-06-02T13:33:51.977Z,32.67
2018-06-02T13:36:18.273Z,32.45
2018-06-02T13:38:44.581Z,32.46
2018-06-02T13:41:10.869Z,33.38
2018-06-02T13:43:39.303Z,36.33
2018-06-02T13:46:05.562Z,36.00
2018-06-02T13:48:31.831Z,36.63
2018-06-02T13:50:58.130Z,36.88
2018-06-02T13:53:24.434Z,36.83
2018-06-02T13:55:50.734Z,37.34
2018-06-02T13:58:19.788Z,37.75
2018-06-02T14:00:46.188Z,37.59
2018-06-02T14:03:12.495Z,38.38
2018-06-02T14:05:39.214Z,37.79
2018-06-02T14:08:08.411Z,38.49
2018-06-02T14:10:32.336Z,38.38
2018-06-02T14:12:58.949Z,37.89
2018-06-02T14:15:32.062Z,38.19
2018-06-02T14:18:04.078Z,38.35
2018-06-02T14:20:29.171Z,38.92
2018-06-02T14:22:55.468Z,38.86
2018-06-02T14:25:21.799Z,38.33
2018-06-02T14:27:48.072Z,35.16
2018-06-02T14:30:14.406Z,33.99
2018-06-02T14:32:40.708Z,34.36
2018-06-02T14:35:08.899Z,34.45
2018-06-02T14:37:46.092Z,33.29
2018-06-02T14:40:11.074Z,33.73
2018-06-02T14:42:37.371Z,34.43
2018-06-02T14:45:03.674Z,35.19
2018-06-02T14:47:30.014Z,35.21
2018-06-02T14:49:56.306Z,37.83
2018-06-02T14:52:22.615Z,38.33
2018-06-02T14:54:48.909Z,39.67
2018-06-02T14:57:15.197Z,40.06
2018-06-02T14:59:41.488Z,40.21
2018-06-02T15:02:08.003Z,40.45
2018-06-02T15:04:34.300Z,40.57
2018-06-02T15:07:00.629Z,40.19
2018-06-02T15:09:26.926Z,40.29
2018-06-02T15:11:53.292Z,40.15
2018-06-02T15:14:19.624Z,40.35
2018-06-02T15:16:45.916Z,40.76
2018-06-02T15:19:12.231Z,41.87
2018-06-02T15:21:38.534Z,42.62
2018-06-02T15:24:04.863Z,42.83
2018-06-02T15:26:31.178Z,43.66
2018-06-02T15:28:57.483Z,44.93
2018-06-02T15:31:23.896Z,45.00
2018-06-02T15:33:50.121Z,45.82
2018-06-02T15:36:16.419Z,45.21
2018-06-02T15:38:42.706Z,45.06
2018-06-02T15:41:09.006Z,45.29
2018-06-02T15:43:35.296Z,45.17
2018-06-02T15:46:01.588Z,45.20
2018-06-02T15:48:27.880Z,48.35
2018-06-02T15:50:54.176Z,51.21
2018-06-02T15:53:20.474Z,53.51
2018-06-02T15:55:46.807Z,54.28
2018-06-02T15:58:13.097Z,54.85
2018-06-02T16:00:39.395Z,54.50
2018-06-02T16:03:05.728Z,54.96
2018-06-02T16:05:32.138Z,55.69
2018-06-02T16:07:58.430Z,55.98
2018-06-02T16:10:24.724Z,58.40
2018-06-02T16:12:51.107Z,59.46
2018-06-02T16:15:17.387Z,60.49
2018-06-02T16:17:43.663Z,61.38
2018-06-02T16:20:10.006Z,61.60
2018-06-02T16:22:36.265Z,63.33
2018-06-02T16:25:02.583Z,63.89
2018-06-02T16:27:28.884Z,63.64
2018-06-02T16:29:55.220Z,63.69
2018-06-02T16:32:21.545Z,63.22
2018-06-02T16:34:47.869Z,63.70
2018-06-02T16:37:14.167Z,63.91
2018-06-02T16:39:40.479Z,64.55
2018-06-02T16:42:06.775Z,64.11
2018-06-02T16:44:33.077Z,63.22
2018-06-02T16:46:59.390Z,62.75
2018-06-02T16:49:25.687Z,63.66
2018-06-02T16:51:51.996Z,63.24
2018-06-02T16:54:18.285Z,64.96
2018-06-02T16:56:44.578Z,64.57
2018-06-02T16:59:10.875Z,62.36
2018-06-02T17:01:37.159Z,62.30
2018-06-02T17:04:03.459Z,61.45
2018-06-02T17:06:29.758Z,61.57
2018-06-02T17:08:56.047Z,62.15
2018-06-02T17:11:22.409Z,61.13
2018-06-02T17:13:48.707Z,60.50
2018-06-02T17:16:15.045Z,60.70
2018-06-02T17:18:41.344Z,61.79
2018-06-02T17:21:07.638Z,59.75
2018-06-02T17:23:33.971Z,61.76
2018-06-02T17:26:00.262Z,60.13
2018-06-02T17:28:26.561Z,59.59
2018-06-02T17:30:52.848Z,61.04
2018-06-02T17:33:19.140Z,61.64
2018-06-02T17:35:45.444Z,62.32
2018-06-02T17:38:11.769Z,62.93
2018-06-02T17:40:38.063Z,62.81
2018-06-02T17:43:04.383Z,63.21
2018-06-02T17:45:30.677Z,62.34
2018-06-02T17:47:56.969Z,64.01
2018-06-02T17:50:23.299Z,64.57
2018-06-02T17:52:49.621Z,64.31
2018-06-02T17:55:15.916Z,64.71
2018-06-02T17:57:42.228Z,65.14
2018-06-02T18:00:08.520Z,65.32
2018-06-02T18:02:34.827Z,64.52
2018-06-02T18:05:01.119Z,65.21
2018-06-02T18:07:27.413Z,64.56
2018-06-02T18:09:53.695Z,64.84
2018-06-02T18:12:20.035Z,65.06
2018-06-02T18:14:46.336Z,65.11
2018-06-02T18:17:12.625Z,64.14
2018-06-02T18:19:38.929Z,63.23
2018-06-02T18:22:05.224Z,62.64
2018-06-02T18:24:31.519Z,61.79
2018-06-02T18:26:57.855Z,61.41
2018-06-02T18:29:24.142Z,61.15
2018-06-02T18:31:50.437Z,61.15
2018-06-02T18:34:16.738Z,60.89
2018-06-02T18:36:43.952Z,60.52
2018-06-02T18:39:10.242Z,60.64
2018-06-02T18:41:36.581Z,60.81
2018-06-02T18:44:02.868Z,60.48
2018-06-02T18:46:29.155Z,60.60
2018-06-02T18:48:55.467Z,60.59
2018-06-02T18:51:21.771Z,62.48
2018-06-02T18:53:48.095Z,66.31
2018-06-02T18:56:14.361Z,67.52
2018-06-02T18:58:40.653Z,68.05
2018-06-02T19:01:06.993Z,68.43
2018-06-02T19:03:33.332Z,69.54
2018-06-02T19:05:59.601Z,71.10
2018-06-02T19:08:25.905Z,71.71
2018-06-02T19:10:52.275Z,72.23
2018-06-02T19:13:19.477Z,72.93
2018-06-02T19:15:44.985Z,73.18
2018-06-02T19:18:11.277Z,73.38
2018-06-02T19:20:37.581Z,73.97
2018-06-02T19:23:03.877Z,74.19
2018-06-02T19:25:30.163Z,74.23
2018-06-02T19:27:56.459Z,74.36
2018-06-02T19:30:22.783Z,74.43
2018-06-02T19:32:49.075Z,74.82
2018-06-02T19:35:15.375Z,74.63
2018-06-02T19:37:41.665Z,74.84
2018-06-02T19:40:07.962Z,74.84
2018-06-02T19:42:34.250Z,75.00
2018-06-02T19:45:00.543Z,75.02
2018-06-02T19:47:26.878Z,75.35
2018-06-02T19:49:53.205Z,74.45
2018-06-02T19:52:19.484Z,73.80
2018-06-02T19:54:45.772Z,73.84
2018-06-02T19:57:12.102Z,74.21
2018-06-02T19:59:38.387Z,74.53
2018-06-02T20:02:04.679Z,73.98
2018-06-02T20:04:30.970Z,73.61
2018-06-02T20:06:57.285Z,73.60
2018-06-02T20:09:23.580Z,73.41
2018-06-02T20:11:49.873Z,73.15
2018-06-02T20:14:16.193Z,73.87
2018-06-02T20:16:42.499Z,74.09
2018-06-02T20:19:08.921Z,73.42
2018-06-02T20:21:35.169Z,73.13
2018-06-02T20:24:01.470Z,72.55
2018-06-02T20:26:27.771Z,72.61
2018-06-02T20:28:54.059Z,72.41
2018-06-02T20:31:20.350Z,71.73
2018-06-02T20:33:46.717Z,71.69
2018-06-02T20:36:13.090Z,71.79
2018-06-02T20:38:39.335Z,72.19
2018-06-02T20:41:05.657Z,72.35
2018-06-02T20:43:32.010Z,72.51
2018-06-02T20:45:58.429Z,72.75
2018-06-02T20:48:24.733Z,71.98
2018-06-02T20:50:51.025Z,72.19
2018-06-02T20:53:17.393Z,72.58
2018-06-02T20:55:43.657Z,72.93
2018-06-02T20:58:09.963Z,73.22
2018-06-02T21:00:36.266Z,73.74
2018-06-02T21:03:02.558Z,73.52
2018-06-02T21:05:28.859Z,73.41
2018-06-02T21:07:55.207Z,73.49
2018-06-02T21:10:21.490Z,73.58
2018-06-02T21:12:47.798Z,73.47
2018-06-02T21:15:14.108Z,73.31
2018-06-02T21:17:40.440Z,73.26
2018-06-02T21:20:06.749Z,74.16
2018-06-02T21:22:33.132Z,74.35
2018-06-02T21:24:59.437Z,74.44
2018-06-02T21:27:25.753Z,74.27
2018-06-02T21:29:52.062Z,74.49
2018-06-02T21:32:18.383Z,74.57
2018-06-02T21:34:44.695Z,75.00
2018-06-02T21:37:11.010Z,75.31
2018-06-02T21:39:37.315Z,75.28
2018-06-02T21:42:03.663Z,75.30
2018-06-02T21:44:30.006Z,75.32
2018-06-02T21:46:56.332Z,75.18
2018-06-02T21:49:22.756Z,76.10
2018-06-02T21:51:49.093Z,75.10
2018-06-02T21:54:15.363Z,75.44
2018-06-02T21:56:41.672Z,75.15
2018-06-02T21:59:07.977Z,75.09
2018-06-02T22:01:34.328Z,74.41
2018-06-02T22:04:00.714Z,73.79
2018-06-02T22:06:26.981Z,73.77
2018-06-02T22:08:53.326Z,74.03
2018-06-02T22:11:19.621Z,74.04
2018-06-02T22:13:45.923Z,74.37
2018-06-02T22:16:12.229Z,74.77
2018-06-02T22:18:38.543Z,74.85
2018-06-02T22:21:04.924Z,74.70
2018-06-02T22:23:31.259Z,74.16
2018-06-02T22:25:57.610Z,74.49
2018-06-02T22:28:23.917Z,74.92
2018-06-02T22:30:50.298Z,74.76
2018-06-02T22:33:16.725Z,75.17
2018-06-02T22:35:43.091Z,75.75
2018-06-02T22:38:09.430Z,76.27
2018-06-02T22:40:35.762Z,77.00
2018-06-02T22:43:02.108Z,77.44
2018-06-02T22:45:28.445Z,77.77
2018-06-02T22:47:54.792Z,78.00
2018-06-02T22:50:21.100Z,78.34
2018-06-02T22:52:47.408Z,78.85
2018-06-02T22:55:13.717Z,78.51
2018-06-02T22:57:40.026Z,78.81
2018-06-02T23:00:06.362Z,79.10
2018-06-02T23:02:32.671Z,79.21
2018-06-02T23:04:59.017Z,79.16
2018-06-02T23:07:25.327Z,79.34
2018-06-02T23:09:51.635Z,79.69
2018-06-02T23:12:17.948Z,79.71
2018-06-02T23:14:44.259Z,80.11
2018-06-02T23:17:10.574Z,80.33
2018-06-02T23:19:36.886Z,80.45
2018-06-02T23:22:03.223Z,80.50
2018-06-02T23:24:29.531Z,80.66
2018-06-02T23:26:55.844Z,80.95
2018-06-02T23:29:22.155Z,80.87
2018-06-02T23:31:48.461Z,81.02
2018-06-02T23:34:14.766Z,80.89
2018-06-02T23:36:41.083Z,80.85
2018-06-02T23:39:07.387Z,81.17
2018-06-02T23:41:33.690Z,80.83
2018-06-02T23:43:59.989Z,80.78
2018-06-02T23:46:26.347Z,80.90
2018-06-02T23:48:52.653Z,81.40
2018-06-02T23:51:18.953Z,80.93
2018-06-02T23:53:45.261Z,80.54
2018-06-02T23:56:11.606Z,80.77
2018-06-02T23:58:37.909Z,81.06
